In Rescue
 
Open Full Screen Window  High Contrast Mode
November 20, 2019 2:50 AM EST
Present Weather: Mist
Weather Information
Wind Direction
  ---
Wind Speed
  00 kt (0 mph)
Wind Gust
  00 kt (0 mph)
Altimeter
30.03 in
Visibility
4 SM
Temperature
-03° C
27° F
Dewpoint
-04° C
25° F
Humidity
93%
1hr Rain Fall
00.00 in.
24hr Rain Fall
00.00 in.
Sky Condition
Clear
MVFR

METAR KJYM 200750Z AUTO 00000KT 4SM BR CLR M03/M04 A3003 RMK AO2 T10331039

FAA Disclaimer: The data displayed is for advisory purposes only and is not to be used for flight planning or operations.